createdAt,value
2023-05-14T00:02:24.821Z,96809.09
2023-05-14T00:04:51.433Z,96807.88
2023-05-14T00:07:17.995Z,96796.94
2023-05-14T00:09:44.532Z,96802.22
2023-05-14T00:12:14.045Z,96796.88
2023-05-14T00:14:45.116Z,96795.06
2023-05-14T00:17:11.662Z,96801.63
2023-05-14T00:19:41.832Z,96801.88
2023-05-14T00:22:09.292Z,96805.53
2023-05-14T00:24:36.596Z,96808.69
2023-05-14T00:27:06.674Z,96810.53
2023-05-14T00:29:36.243Z,96804.19
2023-05-14T00:32:03.881Z,96807.81
2023-05-14T00:34:30.488Z,96809.28
2023-05-14T00:37:01.528Z,96802.72
2023-05-14T00:39:30.349Z,96808.78
2023-05-14T00:41:56.916Z,96807.81
2023-05-14T00:44:23.723Z,96806.56
2023-05-14T00:46:53.279Z,96805.03
2023-05-14T00:49:22.615Z,96806.91
2023-05-14T00:51:49.190Z,96806.25
2023-05-14T00:54:20.081Z,96804.44
2023-05-14T00:56:49.594Z,96801.81
2023-05-14T00:59:16.273Z,96794.78
2023-05-14T01:01:42.851Z,96795.13
2023-05-14T01:04:11.570Z,96803.34
2023-05-14T01:06:51.976Z,96800.88
2023-05-14T01:09:21.304Z,96791.28
2023-05-14T01:12:12.371Z,96785.97
2023-05-14T01:14:54.477Z,96790.53
2023-05-14T01:17:26.813Z,96783.75
2023-05-14T01:19:56.716Z,96785.69
2023-05-14T01:22:23.264Z,96788.75
2023-05-14T01:24:49.789Z,96782.81
2023-05-14T01:27:31.755Z,96785.84
2023-05-14T01:30:40.579Z,96783.06
2023-05-14T01:33:11.022Z,96781.72
2023-05-14T01:35:40.149Z,96778.59
2023-05-14T01:38:12.632Z,96782.72
2023-05-14T01:40:39.816Z,96783.75
2023-05-14T01:43:06.587Z,96786.72
2023-05-14T01:45:36.096Z,96788.78
2023-05-14T01:48:02.768Z,96784.53
2023-05-14T01:50:31.884Z,96782.41
2023-05-14T01:52:58.457Z,96771.78
2023-05-14T01:55:27.629Z,96778.66
2023-05-14T01:57:56.639Z,96783.84
2023-05-14T02:00:26.613Z,96783.66
2023-05-14T02:02:56.047Z,96778.47
2023-05-14T02:05:22.892Z,96777.22
2023-05-14T02:07:51.673Z,96778.06
2023-05-14T02:10:20.793Z,96779.06
2023-05-14T02:12:47.588Z,96778.47
2023-05-14T02:15:14.119Z,96775.66
2023-05-14T02:17:40.720Z,96776.84
2023-05-14T02:20:07.842Z,96772.13
2023-05-14T02:22:34.352Z,96776.19
2023-05-14T02:25:01.084Z,96778.19
2023-05-14T02:27:30.193Z,96767.06
2023-05-14T02:30:00.729Z,96771.66
2023-05-14T02:32:30.198Z,96764.47
2023-05-14T02:35:01.358Z,96765.88
2023-05-14T02:37:32.756Z,96766.38
2023-05-14T02:40:01.625Z,96765.19
2023-05-14T02:42:28.159Z,96757.13
2023-05-14T02:44:56.909Z,96760.69
2023-05-14T02:47:23.507Z,96759.63
2023-05-14T02:49:50.188Z,96762.34
2023-05-14T02:52:18.980Z,96752.63
2023-05-14T02:54:45.544Z,96760.81
2023-05-14T02:57:12.125Z,96757.53
2023-05-14T02:59:38.683Z,96759.84
2023-05-14T03:02:08.207Z,96755.94
2023-05-14T03:04:37.805Z,96753.63
2023-05-14T03:07:06.856Z,96745.66
2023-05-14T03:09:38.384Z,96753.44
2023-05-14T03:12:08.185Z,96752.44
2023-05-14T03:14:37.304Z,96751.38
2023-05-14T03:17:04.167Z,96748.59
2023-05-14T03:19:30.857Z,96747.50
2023-05-14T03:21:57.480Z,96746.88
2023-05-14T03:24:24.029Z,96748.47
2023-05-14T03:26:50.558Z,96750.00
2023-05-14T03:29:19.440Z,96758.25
2023-05-14T03:31:46.134Z,96750.44
2023-05-14T03:34:12.856Z,96751.28
2023-05-14T03:36:39.816Z,96744.81
2023-05-14T03:39:09.569Z,96754.63
2023-05-14T03:41:39.308Z,96753.50
2023-05-14T03:44:08.895Z,96756.97
2023-05-14T03:46:35.846Z,96745.44
2023-05-14T03:49:02.526Z,96747.19
2023-05-14T03:51:29.132Z,96750.31
2023-05-14T03:54:00.872Z,96751.94
2023-05-14T03:56:27.380Z,96748.91
2023-05-14T03:58:53.924Z,96753.56
2023-05-14T04:01:20.475Z,96750.88
2023-05-14T04:03:49.587Z,96759.34
2023-05-14T04:06:16.239Z,96751.06
2023-05-14T04:08:42.800Z,96753.88
2023-05-14T04:11:09.340Z,96743.50
2023-05-14T04:13:40.668Z,96755.19
2023-05-14T04:16:07.272Z,96751.22
2023-05-14T04:18:41.181Z,96758.09
2023-05-14T04:21:07.749Z,96746.00
2023-05-14T04:23:34.415Z,96757.25
2023-05-14T04:26:01.013Z,96742.72
2023-05-14T04:28:27.565Z,96752.84
2023-05-14T04:31:00.203Z,96752.03
2023-05-14T04:33:26.806Z,96751.06
2023-05-14T04:35:53.550Z,96760.75
2023-05-14T04:38:20.111Z,96754.81
2023-05-14T04:40:46.689Z,96760.81
2023-05-14T04:43:16.685Z,96759.00
2023-05-14T04:45:45.851Z,96761.88
2023-05-14T04:48:12.683Z,96762.28
2023-05-14T04:50:39.443Z,96763.47
2023-05-14T04:53:06.017Z,96755.63
2023-05-14T04:55:32.615Z,96765.06
2023-05-14T04:58:03.729Z,96761.78
2023-05-14T05:00:33.549Z,96767.97
2023-05-14T05:03:03.448Z,96769.00
2023-05-14T05:05:32.415Z,96767.19
2023-05-14T05:07:58.978Z,96770.38
2023-05-14T05:10:27.885Z,96764.19
2023-05-14T05:12:54.417Z,96773.53
2023-05-14T05:15:20.994Z,96767.59
2023-05-14T05:17:47.611Z,96765.81
2023-05-14T05:20:16.533Z,96766.19
2023-05-14T05:22:45.509Z,96766.09
2023-05-14T05:25:16.820Z,96764.09
2023-05-14T05:27:43.391Z,96771.19
2023-05-14T05:30:12.809Z,96773.06
2023-05-14T05:32:39.496Z,96771.97
2023-05-14T05:35:06.623Z,96769.91
2023-05-14T05:37:33.214Z,96778.91
2023-05-14T05:40:02.102Z,96773.72
2023-05-14T05:42:28.729Z,96768.91
2023-05-14T05:44:55.518Z,96772.34
2023-05-14T05:47:24.393Z,96768.22
2023-05-14T05:49:50.938Z,96772.81
2023-05-14T05:52:19.740Z,96769.41
2023-05-14T05:54:46.422Z,96772.13
2023-05-14T05:57:13.102Z,96764.91
2023-05-14T05:59:44.474Z,96767.63
2023-05-14T06:02:13.502Z,96768.09
2023-05-14T06:04:40.211Z,96764.09
2023-05-14T06:07:06.765Z,96769.19
2023-05-14T06:09:38.042Z,96778.00
2023-05-14T06:12:04.993Z,96770.47
2023-05-14T06:14:31.592Z,96766.81
2023-05-14T06:16:58.853Z,96763.59
2023-05-14T06:19:25.526Z,96767.28
2023-05-14T06:21:56.612Z,96762.56
2023-05-14T06:24:25.514Z,96776.59
2023-05-14T06:26:54.293Z,96768.69
2023-05-14T06:29:20.990Z,96766.94
2023-05-14T06:31:47.651Z,96766.97
2023-05-14T06:34:14.302Z,96760.19
2023-05-14T06:36:43.199Z,96765.34
2023-05-14T06:39:16.812Z,96766.63
2023-05-14T06:41:43.386Z,96765.75
2023-05-14T06:44:12.146Z,96758.47
2023-05-14T06:46:43.238Z,96764.53
2023-05-14T06:49:09.995Z,96765.22
2023-05-14T06:51:39.107Z,96763.94
2023-05-14T06:54:05.699Z,96754.09
2023-05-14T06:56:34.883Z,96762.06
2023-05-14T06:59:04.015Z,96755.75
2023-05-14T07:01:32.871Z,96751.59
2023-05-14T07:03:59.574Z,96759.91
2023-05-14T07:06:26.183Z,96757.25
2023-05-14T07:08:53.360Z,96757.50
2023-05-14T07:11:22.394Z,96761.00
2023-05-14T07:13:48.994Z,96758.13
2023-05-14T07:16:18.065Z,96758.41
2023-05-14T07:18:45.668Z,96761.00
2023-05-14T07:21:14.500Z,96758.03
2023-05-14T07:23:43.259Z,96757.44
2023-05-14T07:26:09.921Z,96748.78
2023-05-14T07:28:36.587Z,96749.78
2023-05-14T07:31:08.785Z,96743.13
2023-05-14T07:33:40.898Z,96751.88
2023-05-14T07:36:10.709Z,96745.47
2023-05-14T07:38:37.326Z,96752.13
2023-05-14T07:41:08.490Z,96748.69
2023-05-14T07:43:35.049Z,96755.44
2023-05-14T07:46:04.579Z,96752.44
2023-05-14T07:48:31.210Z,96747.81
2023-05-14T07:51:00.202Z,96747.19
2023-05-14T07:53:26.836Z,96747.03
2023-05-14T07:55:55.705Z,96753.09
2023-05-14T07:58:23.145Z,96753.31
2023-05-14T08:00:51.958Z,96752.16
2023-05-14T08:03:18.744Z,96758.22
2023-05-14T08:05:45.921Z,96758.50
2023-05-14T08:08:14.928Z,96757.19
2023-05-14T08:10:41.581Z,96757.97
2023-05-14T08:13:10.974Z,96755.47
2023-05-14T08:15:37.566Z,96759.69
2023-05-14T08:18:06.654Z,96751.63
2023-05-14T08:20:33.249Z,96744.94
2023-05-14T08:22:59.765Z,96742.19
2023-05-14T08:25:28.805Z,96745.47
2023-05-14T08:27:59.757Z,96746.25
2023-05-14T08:30:26.666Z,96752.09
2023-05-14T08:32:53.734Z,96742.66
2023-05-14T08:35:20.339Z,96748.72
2023-05-14T08:37:46.959Z,96746.47
2023-05-14T08:40:13.724Z,96742.50
2023-05-14T08:42:44.943Z,96748.72
2023-05-14T08:45:28.847Z,96742.59
2023-05-14T08:47:58.549Z,96742.75
2023-05-14T08:50:25.679Z,96746.09
2023-05-14T08:52:53.141Z,96745.78
2023-05-14T08:55:20.105Z,96737.91
2023-05-14T08:57:46.761Z,96736.06
2023-05-14T09:00:15.573Z,96733.91
2023-05-14T09:02:46.726Z,96728.75
2023-05-14T09:05:14.905Z,96725.31
2023-05-14T09:07:41.750Z,96721.69
2023-05-14T09:10:11.537Z,96719.56
2023-05-14T09:12:40.463Z,96717.84
2023-05-14T09:15:07.323Z,96716.81
2023-05-14T09:17:36.491Z,96720.63
2023-05-14T09:20:04.104Z,96708.78
2023-05-14T09:22:33.524Z,96710.16
2023-05-14T09:25:13.134Z,96711.97
2023-05-14T09:27:46.580Z,96711.97
2023-05-14T09:30:13.820Z,96708.16
2023-05-14T09:32:45.834Z,96704.91
2023-05-14T09:35:18.371Z,96696.78
2023-05-14T09:37:49.434Z,96705.41
2023-05-14T09:40:19.564Z,96700.22
2023-05-14T09:42:50.930Z,96698.50
2023-05-14T09:45:20.435Z,96689.53
2023-05-14T09:47:47.408Z,96703.88
2023-05-14T09:50:14.166Z,96695.53
2023-05-14T09:52:42.919Z,96693.28
2023-05-14T09:55:09.701Z,96696.47
2023-05-14T09:57:38.523Z,96689.31
2023-05-14T10:00:05.843Z,96694.31
2023-05-14T10:02:41.565Z,96692.00
2023-05-14T10:05:09.544Z,96701.00
2023-05-14T10:07:47.986Z,96694.22
2023-05-14T10:10:18.465Z,96694.19
2023-05-14T10:12:52.784Z,96685.75
2023-05-14T10:15:41.999Z,96689.09
2023-05-14T10:18:20.020Z,96693.41
2023-05-14T10:21:01.084Z,96689.41
2023-05-14T10:23:30.312Z,96681.19
2023-05-14T10:25:58.575Z,96674.69
2023-05-14T10:28:25.949Z,96675.38
2023-05-14T10:30:56.589Z,96680.69
2023-05-14T10:33:23.175Z,96670.91
2023-05-14T10:36:02.620Z,96669.78
2023-05-14T10:38:33.444Z,96673.84
2023-05-14T10:41:02.465Z,96679.56
2023-05-14T10:43:36.393Z,96673.97
2023-05-14T10:46:03.644Z,96672.75
2023-05-14T10:48:35.289Z,96672.91
2023-05-14T10:51:07.501Z,96675.94
2023-05-14T10:53:41.809Z,96673.94
2023-05-14T10:56:14.684Z,96664.84
2023-05-14T10:58:45.853Z,96661.09
2023-05-14T11:01:15.563Z,96662.19
2023-05-14T11:03:46.817Z,96657.72
2023-05-14T11:06:15.219Z,96658.03
2023-05-14T11:08:46.534Z,96654.69
2023-05-14T11:11:13.268Z,96657.41
2023-05-14T11:13:41.449Z,96654.91
2023-05-14T11:16:21.926Z,96665.19
2023-05-14T11:19:01.880Z,96657.28
2023-05-14T11:21:28.878Z,96652.34
2023-05-14T11:23:56.572Z,96650.34
2023-05-14T11:26:24.260Z,96643.19
2023-05-14T11:28:50.960Z,96642.63
2023-05-14T11:31:24.633Z,96644.69
2023-05-14T11:33:52.528Z,96645.03
2023-05-14T11:36:19.061Z,96640.69
2023-05-14T11:38:51.359Z,96638.50
2023-05-14T11:41:18.125Z,96641.44
2023-05-14T11:43:47.680Z,96640.59
2023-05-14T11:46:20.720Z,96648.19
2023-05-14T11:48:49.629Z,96645.44
2023-05-14T11:51:16.251Z,96644.53
2023-05-14T11:53:45.559Z,96637.56
2023-05-14T11:56:14.706Z,96638.81
2023-05-14T11:58:43.738Z,96643.41
2023-05-14T12:01:18.106Z,96636.25
2023-05-14T12:03:47.391Z,96635.91
2023-05-14T12:06:19.258Z,96631.94
2023-05-14T12:08:48.306Z,96642.88
2023-05-14T12:11:14.936Z,96630.81
2023-05-14T12:13:42.017Z,96623.72
2023-05-14T12:16:09.061Z,96626.19
2023-05-14T12:18:35.923Z,96621.00
2023-05-14T12:21:08.698Z,96620.25
2023-05-14T12:23:35.558Z,96620.97
2023-05-14T12:26:11.764Z,96615.13
2023-05-14T12:28:43.234Z,96612.56
2023-05-14T12:31:12.529Z,96606.44
2023-05-14T12:33:39.085Z,96609.16
2023-05-14T12:36:21.275Z,96611.69
2023-05-14T12:38:52.850Z,96610.28
2023-05-14T12:41:21.775Z,96603.03
2023-05-14T12:43:51.219Z,96597.06
2023-05-14T12:46:17.938Z,96600.78
2023-05-14T12:48:44.493Z,96591.09
2023-05-14T12:51:11.001Z,96596.41
2023-05-14T12:53:39.709Z,96590.09
2023-05-14T12:56:08.880Z,96588.63
2023-05-14T12:58:35.712Z,96602.63
2023-05-14T13:01:04.915Z,96601.56
2023-05-14T13:03:34.329Z,96597.53
2023-05-14T13:06:01.432Z,96592.44
2023-05-14T13:08:30.133Z,96584.91
2023-05-14T13:10:56.906Z,96583.38
2023-05-14T13:13:26.317Z,96580.47
2023-05-14T13:15:53.395Z,96574.97
2023-05-14T13:18:20.026Z,96572.81
2023-05-14T13:20:47.592Z,96585.41
2023-05-14T13:23:14.631Z,96579.44
2023-05-14T13:25:41.432Z,96579.09
2023-05-14T13:28:08.799Z,96579.63
2023-05-14T13:30:38.054Z,96579.00
2023-05-14T13:33:08.963Z,96590.97
2023-05-14T13:35:38.057Z,96585.34
2023-05-14T13:38:04.652Z,96578.66
2023-05-14T13:40:33.489Z,96570.94
2023-05-14T13:43:03.127Z,96579.75
2023-05-14T13:45:29.716Z,96573.22
2023-05-14T13:47:56.808Z,96566.31
2023-05-14T13:50:23.406Z,96556.72
2023-05-14T13:52:50.009Z,96555.91
2023-05-14T13:55:18.793Z,96560.75
2023-05-14T13:57:45.359Z,96554.56
2023-05-14T14:00:13.444Z,96545.34
2023-05-14T14:02:40.210Z,96550.69
2023-05-14T14:05:07.285Z,96556.25
2023-05-14T14:07:33.881Z,96552.91
2023-05-14T14:10:01.754Z,96571.41
2023-05-14T14:12:28.469Z,96567.00
2023-05-14T14:14:55.129Z,96554.13
2023-05-14T14:17:21.740Z,96561.00
2023-05-14T14:19:50.771Z,96558.94
2023-05-14T14:22:19.630Z,96552.91
2023-05-14T14:24:46.389Z,96556.88
2023-05-14T14:27:13.082Z,96560.81
2023-05-14T14:29:39.690Z,96562.22
2023-05-14T14:32:09.073Z,96561.00
2023-05-14T14:34:38.931Z,96565.47
2023-05-14T14:37:05.552Z,96561.47
2023-05-14T14:39:34.755Z,96556.16
2023-05-14T14:42:03.604Z,96561.84
2023-05-14T14:44:30.233Z,96565.00
2023-05-14T14:46:56.811Z,96565.72
2023-05-14T14:49:23.572Z,96560.84
2023-05-14T14:51:52.375Z,96567.75
2023-05-14T14:54:18.962Z,96570.97
2023-05-14T14:56:52.508Z,96569.38
2023-05-14T14:59:19.116Z,96559.84
2023-05-14T15:01:45.826Z,96564.13
2023-05-14T15:04:15.010Z,96558.84
2023-05-14T15:06:41.550Z,96550.53
2023-05-14T15:09:08.114Z,96543.44
2023-05-14T15:11:37.572Z,96546.91
2023-05-14T15:14:04.414Z,96549.47
2023-05-14T15:16:31.052Z,96547.97
2023-05-14T15:19:00.265Z,96545.34
2023-05-14T15:21:27.036Z,96540.31
2023-05-14T15:23:53.554Z,96541.06
2023-05-14T15:26:20.087Z,96545.31
2023-05-14T15:28:46.662Z,96546.53
2023-05-14T15:31:15.784Z,96544.75
2023-05-14T15:33:42.559Z,96545.97
2023-05-14T15:36:11.487Z,96545.97
2023-05-14T15:38:38.286Z,96551.91
2023-05-14T15:41:05.361Z,96550.50
2023-05-14T15:43:31.894Z,96549.28
2023-05-14T15:45:58.456Z,96553.00
2023-05-14T15:48:25.069Z,96559.41
2023-05-14T15:50:54.207Z,96551.25
2023-05-14T15:53:20.906Z,96559.25
2023-05-14T15:55:50.814Z,96543.81
2023-05-14T15:58:17.518Z,96548.06
2023-05-14T16:00:48.590Z,96547.75
2023-05-14T16:03:15.363Z,96552.59
2023-05-14T16:05:45.052Z,96555.34
2023-05-14T16:08:11.654Z,96559.56
2023-05-14T16:10:38.641Z,96550.03
2023-05-14T16:13:05.305Z,96547.75
2023-05-14T16:15:32.014Z,96553.66
2023-05-14T16:17:59.794Z,96555.03
2023-05-14T16:20:26.491Z,96560.09
2023-05-14T16:22:53.140Z,96562.03
2023-05-14T16:25:24.594Z,96550.78
2023-05-14T16:27:51.289Z,96566.41
2023-05-14T16:30:22.655Z,96569.72
2023-05-14T16:32:49.704Z,96572.09
2023-05-14T16:35:16.850Z,96575.13
2023-05-14T16:37:43.726Z,96569.53
2023-05-14T16:40:11.830Z,96569.97
2023-05-14T16:42:38.742Z,96575.75
2023-05-14T16:45:08.022Z,96576.59
2023-05-14T16:47:34.589Z,96580.97
2023-05-14T16:50:01.182Z,96580.13
2023-05-14T16:52:30.091Z,96584.75
2023-05-14T16:54:56.717Z,96579.44
2023-05-14T16:57:23.472Z,96581.38
2023-05-14T16:59:52.232Z,96586.50
2023-05-14T17:02:24.625Z,96590.19
2023-05-14T17:04:51.292Z,96591.25
2023-05-14T17:07:20.724Z,96593.75
2023-05-14T17:09:47.309Z,96594.53
2023-05-14T17:12:14.004Z,96592.59
2023-05-14T17:14:42.649Z,96598.09
2023-05-14T17:17:09.390Z,96599.63
2023-05-14T17:19:38.280Z,96604.91
2023-05-14T17:22:07.353Z,96606.59
2023-05-14T17:24:35.486Z,96612.41
2023-05-14T17:27:02.130Z,96617.84
2023-05-14T17:29:31.840Z,96618.31
2023-05-14T17:31:58.496Z,96623.97
2023-05-14T17:34:27.555Z,96628.63
2023-05-14T17:36:54.144Z,96630.00
2023-05-14T17:39:20.730Z,96633.41
2023-05-14T17:41:49.321Z,96634.47
2023-05-14T17:44:18.166Z,96635.38
2023-05-14T17:46:45.792Z,96636.38
2023-05-14T17:49:12.366Z,96635.00
2023-05-14T17:51:41.936Z,96646.81
2023-05-14T17:54:10.889Z,96652.66
2023-05-14T17:56:40.017Z,96653.16
2023-05-14T17:59:07.074Z,96651.41
2023-05-14T18:01:33.801Z,96656.41
2023-05-14T18:04:00.534Z,96653.19
2023-05-14T18:06:29.694Z,96650.00
2023-05-14T18:08:58.477Z,96648.31
2023-05-14T18:11:25.109Z,96658.59
2023-05-14T18:13:51.680Z,96646.53
2023-05-14T18:16:18.285Z,96647.53
2023-05-14T18:18:44.977Z,96649.66
2023-05-14T18:21:11.544Z,96659.72
2023-05-14T18:23:41.177Z,96652.88
2023-05-14T18:26:07.849Z,96659.47
2023-05-14T18:28:37.100Z,96653.69
2023-05-14T18:31:08.782Z,96656.66
2023-05-14T18:33:35.601Z,96666.72
2023-05-14T18:36:02.321Z,96672.72
2023-05-14T18:38:34.175Z,96676.72
2023-05-14T18:41:05.692Z,96679.06
2023-05-14T18:43:34.488Z,96676.84
2023-05-14T18:46:01.108Z,96679.00
2023-05-14T18:48:27.912Z,96680.09
2023-05-14T18:50:56.888Z,96677.38
2023-05-14T18:53:29.316Z,96677.28
2023-05-14T18:56:02.411Z,96677.72
2023-05-14T18:58:31.418Z,96683.59
2023-05-14T19:00:59.070Z,96681.75
2023-05-14T19:03:27.955Z,96678.81
2023-05-14T19:05:54.850Z,96685.88
2023-05-14T19:08:21.415Z,96693.84
2023-05-14T19:10:48.560Z,96691.81
2023-05-14T19:13:17.569Z,96696.06
2023-05-14T19:15:46.424Z,96694.84
2023-05-14T19:18:15.371Z,96695.72
2023-05-14T19:20:42.507Z,96698.88
2023-05-14T19:23:13.835Z,96698.88
2023-05-14T19:25:40.487Z,96706.34
2023-05-14T19:28:09.242Z,96703.06
2023-05-14T19:30:35.826Z,96706.59
2023-05-14T19:33:02.419Z,96708.97
2023-05-14T19:35:29.005Z,96704.09
2023-05-14T19:37:55.546Z,96711.22
2023-05-14T19:40:22.103Z,96714.38
2023-05-14T19:42:48.735Z,96717.00
2023-05-14T19:45:17.733Z,96715.31
2023-05-14T19:47:46.725Z,96725.94
2023-05-14T19:50:18.051Z,96723.81
2023-05-14T19:52:44.608Z,96730.44
2023-05-14T19:55:13.623Z,96729.25
2023-05-14T19:57:40.251Z,96718.38
2023-05-14T20:00:10.532Z,96723.81
2023-05-14T20:02:41.019Z,96724.31
2023-05-14T20:05:12.827Z,96730.44
2023-05-14T20:07:42.597Z,96727.72
2023-05-14T20:10:12.887Z,96731.63
2023-05-14T20:12:39.412Z,96739.91
2023-05-14T20:15:06.258Z,96727.16
2023-05-14T20:17:34.883Z,96739.41
2023-05-14T20:20:01.649Z,96731.41
2023-05-14T20:22:28.196Z,96741.72
2023-05-14T20:24:54.856Z,96740.34
2023-05-14T20:27:21.833Z,96738.63
2023-05-14T20:29:51.368Z,96731.13
2023-05-14T20:32:18.075Z,96734.53
2023-05-14T20:34:47.121Z,96730.75
2023-05-14T20:37:15.901Z,96732.28
2023-05-14T20:39:42.486Z,96731.75
2023-05-14T20:42:11.654Z,96723.28
2023-05-14T20:44:38.248Z,96726.66
2023-05-14T20:47:09.631Z,96717.66
2023-05-14T20:49:36.193Z,96718.84
2023-05-14T20:52:02.803Z,96707.63
2023-05-14T20:54:29.317Z,96716.88
2023-05-14T20:56:55.902Z,96710.94
2023-05-14T20:59:27.329Z,96712.88
2023-05-14T21:01:53.898Z,96712.31
2023-05-14T21:04:20.688Z,96709.16
2023-05-14T21:06:47.500Z,96712.88
2023-05-14T21:09:16.353Z,96708.84
2023-05-14T21:11:42.940Z,96711.16
2023-05-14T21:14:12.503Z,96710.81
2023-05-14T21:16:44.043Z,96715.06
2023-05-14T21:19:15.240Z,96710.81
2023-05-14T21:21:42.149Z,96704.72
2023-05-14T21:24:13.447Z,96701.56
2023-05-14T21:26:41.417Z,96697.00
2023-05-14T21:29:07.996Z,96688.50
2023-05-14T21:31:36.764Z,96695.91
2023-05-14T21:34:03.289Z,96695.00
2023-05-14T21:36:29.855Z,96701.41
2023-05-14T21:38:58.945Z,96691.31
2023-05-14T21:41:27.860Z,96694.13
2023-05-14T21:43:54.450Z,96688.22
2023-05-14T21:46:21.185Z,96683.88
2023-05-14T21:48:47.866Z,96685.16
2023-05-14T21:51:16.747Z,96686.53
2023-05-14T21:53:43.331Z,96685.22
2023-05-14T21:56:10.055Z,96689.28
2023-05-14T21:58:39.595Z,96680.84
2023-05-14T22:01:06.188Z,96690.59
2023-05-14T22:03:32.804Z,96684.81
2023-05-14T22:05:59.383Z,96686.53
2023-05-14T22:08:29.613Z,96685.00
2023-05-14T22:10:56.475Z,96679.56
2023-05-14T22:13:25.307Z,96683.13
2023-05-14T22:16:09.111Z,96688.28
2023-05-14T22:18:41.626Z,96677.22
2023-05-14T22:21:10.887Z,96683.97
2023-05-14T22:23:37.563Z,96667.38
2023-05-14T22:26:04.611Z,96670.09
2023-05-14T22:28:34.162Z,96662.81
2023-05-14T22:31:04.190Z,96665.09
2023-05-14T22:33:33.313Z,96667.81
2023-05-14T22:35:59.846Z,96657.38
2023-05-14T22:38:26.408Z,96663.03
2023-05-14T22:40:53.012Z,96663.78
2023-05-14T22:43:19.579Z,96663.44
2023-05-14T22:45:48.469Z,96664.66
2023-05-14T22:48:20.297Z,96655.34
2023-05-14T22:50:46.819Z,96655.34
2023-05-14T22:53:15.790Z,96667.22
2023-05-14T22:55:42.351Z,96668.75
2023-05-14T22:58:13.647Z,96663.25
2023-05-14T23:00:42.578Z,96667.31
2023-05-14T23:03:09.165Z,96668.25
2023-05-14T23:05:35.950Z,96667.25
2023-05-14T23:08:02.629Z,96665.72
2023-05-14T23:10:29.638Z,96661.50
2023-05-14T23:12:56.206Z,96664.00
2023-05-14T23:15:25.219Z,96668.94
2023-05-14T23:17:52.007Z,96662.81
2023-05-14T23:20:20.810Z,96666.22
2023-05-14T23:22:52.426Z,96662.75
2023-05-14T23:25:18.907Z,96660.63
2023-05-14T23:27:48.026Z,96670.63
2023-05-14T23:30:14.591Z,96669.88
2023-05-14T23:32:41.140Z,96656.28
2023-05-14T23:35:10.152Z,96655.97
2023-05-14T23:37:47.183Z,96654.69
2023-05-14T23:40:14.217Z,96638.75
2023-05-14T23:42:43.922Z,96642.72
2023-05-14T23:45:13.679Z,96636.88
2023-05-14T23:47:42.654Z,96644.94
2023-05-14T23:50:09.479Z,96641.13
2023-05-14T23:52:36.042Z,96643.00
2023-05-14T23:55:02.637Z,96641.81
2023-05-14T23:57:31.905Z,96641.06
